Time;durP1;ratioP1;P1;durP2;ratioP2;P2;SDS_P1;SDS_P2;PMS_P1;PMS_P2;Temp;Humidity;BMP_temperature;BMP_pressure;BME280_temperature;BME280_humidity;BME280_pressure;Samples;Min_cycle;Max_cycle;Signal;HPM_P1;HPM_P2
2023/05/16 00:00:19;;;;;;;7.33;5.13;;;;;;;10.50;100.00;100756.53;690584;28;1008;-62
2023/05/16 00:00:40;;;;;;;8.95;5.00;;;;;;;10.53;100.00;100753.06;690037;28;817;-62
2023/05/16 00:01:01;;;;;;;9.52;4.82;;;;;;;10.60;100.00;100759.16;688776;28;4414;-61
2023/05/16 00:01:22;;;;;;;8.43;4.82;;;;;;;10.61;100.00;100755.66;690599;28;1055;-61
2023/05/16 00:01:42;;;;;;;7.45;4.70;;;;;;;10.69;100.00;100759.13;689591;28;1115;-61
2023/05/16 00:02:02;;;;;;;7.43;4.60;;;;;;;10.71;100.00;100754.72;688752;28;1914;-62
2023/05/16 00:02:23;;;;;;;7.10;4.70;;;;;;;10.64;100.00;100753.03;688208;28;762;-61
2023/05/16 00:02:46;;;;;;;8.10;4.75;;;;;;;10.61;100.00;100759.13;689934;28;969;-61
2023/05/16 00:03:07;;;;;;;8.05;4.70;;;;;;;10.68;100.00;100755.63;689382;28;1539;-61
2023/05/16 00:03:29;;;;;;;7.95;4.93;;;;;;;10.67;100.00;100758.25;690444;28;1507;-60
2023/05/16 00:03:50;;;;;;;9.25;5.07;;;;;;;10.64;100.00;100755.66;688994;28;1632;-62
2023/05/16 00:04:10;;;;;;;8.30;4.83;;;;;;;10.56;100.00;100753.03;690083;28;4480;-61
2023/05/16 00:04:31;;;;;;;7.95;4.90;;;;;;;10.50;100.00;100751.31;690416;28;948;-61
2023/05/16 00:04:52;;;;;;;8.05;5.07;;;;;;;10.40;100.00;100754.84;689142;28;1671;-62
2023/05/16 00:05:15;;;;;;;7.47;5.13;;;;;;;10.44;100.00;100748.75;690776;28;924;-61
2023/05/16 00:05:36;;;;;;;8.82;5.20;;;;;;;10.48;100.00;100757.41;690116;28;1012;-62
2023/05/16 00:05:58;;;;;;;9.50;5.18;;;;;;;10.54;100.00;100754.81;688993;28;2136;-61
2023/05/16 00:06:18;;;;;;;8.07;5.15;;;;;;;10.49;100.00;100760.03;688950;28;1093;-62
2023/05/16 00:06:38;;;;;;;9.03;5.03;;;;;;;10.47;100.00;100759.19;690185;28;1215;-61
2023/05/16 00:06:59;;;;;;;9.70;4.93;;;;;;;10.42;100.00;100757.44;688498;28;4567;-61
2023/05/16 00:07:19;;;;;;;8.57;4.80;;;;;;;10.48;100.00;100766.16;690687;28;1194;-61
2023/05/16 00:07:45;;;;;;;8.10;4.87;;;;;;;10.40;100.00;100765.31;690459;28;928;-62
2023/05/16 00:08:05;;;;;;;8.05;5.10;;;;;;;10.51;100.00;100757.44;688944;28;1512;-63
2023/05/16 00:08:25;;;;;;;8.33;5.23;;;;;;;10.46;100.00;100760.03;690663;28;1006;-62
2023/05/16 00:08:46;;;;;;;10.10;5.70;;;;;;;10.46;100.00;100765.28;690428;28;918;-62
2023/05/16 00:09:06;;;;;;;9.63;5.78;;;;;;;10.44;100.00;100759.19;689103;28;1516;-62
2023/05/16 00:09:27;;;;;;;9.53;5.50;;;;;;;10.34;100.00;100762.66;690718;28;868;-62
2023/05/16 00:09:47;;;;;;;8.65;5.30;;;;;;;10.37;100.00;100757.44;689831;28;1223;-61
2023/05/16 00:10:08;;;;;;;8.43;5.13;;;;;;;10.35;100.00;100751.38;688415;28;4362;-62
2023/05/16 00:10:28;;;;;;;7.90;5.00;;;;;;;10.33;100.00;100758.31;690576;28;1000;-62
2023/05/16 00:10:48;;;;;;;8.87;5.40;;;;;;;10.26;100.00;100764.41;689410;28;1513;-61
2023/05/16 00:11:09;;;;;;;8.13;5.43;;;;;;;10.28;100.00;100760.06;690298;28;897;-62
2023/05/16 00:11:29;;;;;;;8.00;5.30;;;;;;;10.32;100.00;100762.66;690501;28;1452;-62
2023/05/16 00:11:50;;;;;;;9.00;5.68;;;;;;;10.38;100.00;100754.84;688823;28;1609;-61
2023/05/16 00:12:10;;;;;;;7.70;5.80;;;;;;;10.48;100.00;100760.94;689982;28;1027;-61
2023/05/16 00:12:31;;;;;;;9.20;5.50;;;;;;;10.45;100.00;100758.28;690697;28;996;-61
2023/05/16 00:12:52;;;;;;;8.52;5.28;;;;;;;10.47;100.00;100761.78;689147;28;1512;-61
2023/05/16 00:13:13;;;;;;;7.82;5.53;;;;;;;10.41;100.00;100767.00;689948;28;4355;-61
2023/05/16 00:13:33;;;;;;;8.27;5.57;;;;;;;10.37;100.00;100760.06;690575;28;885;-62
2023/05/16 00:13:54;;;;;;;8.97;5.50;;;;;;;10.37;100.00;100766.16;689093;28;1599;-63
2023/05/16 00:14:14;;;;;;;9.63;5.47;;;;;;;10.36;100.00;100760.94;690194;28;695;-61
2023/05/16 00:14:35;;;;;;;9.73;5.30;;;;;;;10.37;100.00;100766.16;690324;28;1048;-61
2023/05/16 00:14:55;;;;;;;8.65;5.40;;;;;;;10.31;100.00;100760.06;689411;28;1557;-63
2023/05/16 00:15:17;;;;;;;8.80;5.40;;;;;;;10.30;100.00;100759.19;690231;28;822;-62
2023/05/16 00:15:37;;;;;;;8.68;5.45;;;;;;;10.29;100.00;100767.03;690746;28;896;-62
2023/05/16 00:16:01;;;;;;;9.33;5.50;;;;;;;10.27;100.00;100755.69;685613;28;4392;-62
2023/05/16 00:16:24;;;;;;;9.73;5.63;;;;;;;10.22;100.00;100760.94;686385;28;3230;-61
2023/05/16 00:16:46;;;;;;;8.82;5.20;;;;;;;10.29;100.00;100761.81;684983;28;1176;-63
2023/05/16 00:17:10;;;;;;;9.40;5.20;;;;;;;10.28;100.00;100760.06;683613;28;1134;-63
2023/05/16 00:17:31;;;;;;;9.68;5.72;;;;;;;10.30;100.00;100758.31;683140;28;1239;-63
2023/05/16 00:17:51;;;;;;;9.13;5.40;;;;;;;10.31;100.00;100760.91;685772;28;1643;-62
2023/05/16 00:18:14;;;;;;;8.20;5.30;;;;;;;10.31;100.00;100757.44;687334;28;889;-62
2023/05/16 00:18:38;;;;;;;9.32;5.68;;;;;;;10.30;100.00;100763.53;688767;28;920;-62
2023/05/16 00:18:59;;;;;;;10.95;5.70;;;;;;;10.30;100.00;100763.53;688448;28;4458;-63
2023/05/16 00:19:20;;;;;;;9.25;5.38;;;;;;;10.30;100.00;100763.53;690213;28;1220;-63
2023/05/16 00:19:41;;;;;;;8.73;5.57;;;;;;;10.31;100.00;100763.53;690598;28;957;-62
2023/05/16 00:20:06;;;;;;;8.93;5.57;;;;;;;10.29;100.00;100757.44;689441;28;928;-63
2023/05/16 00:20:27;;;;;;;9.68;5.47;;;;;;;10.29;100.00;100765.28;689795;28;932;-63
2023/05/16 00:20:50;;;;;;;8.90;5.20;;;;;;;10.28;100.00;100768.75;690581;28;1342;-62
2023/05/16 00:21:11;;;;;;;10.57;5.65;;;;;;;10.33;100.00;100760.94;690327;28;949;-63
2023/05/16 00:21:32;;;;;;;8.15;5.18;;;;;;;10.37;100.00;100765.28;690269;28;932;-63
2023/05/16 00:21:52;;;;;;;8.65;5.60;;;;;;;10.29;100.00;100767.03;688871;28;1607;-64
2023/05/16 00:22:13;;;;;;;9.23;6.33;;;;;;;10.35;100.00;100767.91;689944;28;4436;-63
2023/05/16 00:22:33;;;;;;;9.85;6.00;;;;;;;10.39;100.00;100753.97;690006;28;1433;-63
2023/05/16 00:22:54;;;;;;;10.23;5.73;;;;;;;10.39;100.00;100766.16;689209;28;1632;-63
2023/05/16 00:23:14;;;;;;;9.40;5.55;;;;;;;10.34;100.00;100765.25;690595;28;885;-63
2023/05/16 00:23:34;;;;;;;9.77;5.63;;;;;;;10.36;100.00;100767.03;689829;28;866;-63
2023/05/16 00:23:55;;;;;;;9.10;6.03;;;;;;;10.41;100.00;100759.19;688991;28;1521;-62
2023/05/16 00:24:15;;;;;;;8.27;5.43;;;;;;;10.41;100.00;100774.84;690374;28;909;-63
2023/05/16 00:24:36;;;;;;;8.25;5.15;;;;;;;10.43;100.00;100767.03;689479;28;1055;-63
2023/05/16 00:24:56;;;;;;;8.00;5.37;;;;;;;10.44;100.00;100761.81;688726;28;4346;-63
2023/05/16 00:25:17;;;;;;;7.87;5.17;;;;;;;10.39;100.00;100763.56;690627;28;831;-63
2023/05/16 00:25:37;;;;;;;7.57;5.15;;;;;;;10.37;100.00;100763.56;690183;28;1289;-63
2023/05/16 00:25:58;;;;;;;7.40;5.15;;;;;;;10.34;100.00;100762.66;688851;28;1584;-63
2023/05/16 00:26:18;;;;;;;7.63;5.23;;;;;;;10.34;100.00;100770.50;690062;28;1101;-63
2023/05/16 00:26:39;;;;;;;8.60;5.13;;;;;;;10.32;100.00;100762.66;689417;28;675;-63
2023/05/16 00:26:59;;;;;;;8.40;5.13;;;;;;;10.30;100.00;100766.13;689818;28;1547;-63
2023/05/16 00:27:20;;;;;;;8.30;5.10;;;;;;;10.39;100.00;100776.63;690737;28;1141;-63
2023/05/16 00:27:42;;;;;;;8.18;5.03;;;;;;;10.34;100.00;100770.50;691557;28;1386;-63
2023/05/16 00:28:03;;;;;;;9.37;5.37;;;;;;;10.30;100.00;100768.75;679866;28;4312;-62
2023/05/16 00:28:24;;;;;;;10.00;5.50;;;;;;;10.25;100.00;100768.78;683668;28;873;-63
2023/05/16 00:28:45;;;;;;;8.83;5.33;;;;;;;10.29;100.00;100764.44;682698;28;1346;-64
2023/05/16 00:29:05;;;;;;;8.18;5.10;;;;;;;10.40;100.00;100773.13;681365;28;1547;-64
2023/05/16 00:29:26;;;;;;;10.00;5.57;;;;;;;10.41;100.00;100764.41;682525;29;795;-63
2023/05/16 00:29:46;;;;;;;8.77;5.40;;;;;;;10.39;100.00;100774.00;683239;28;1275;-64
2023/05/16 00:30:07;;;;;;;8.67;5.30;;;;;;;10.43;100.00;100775.75;685806;28;1577;-63
2023/05/16 00:30:27;;;;;;;8.00;5.40;;;;;;;10.44;100.00;100764.41;685837;28;1430;-64
2023/05/16 00:30:48;;;;;;;8.05;5.55;;;;;;;10.39;100.00;100769.63;687334;28;905;-64
2023/05/16 00:31:09;;;;;;;9.00;5.50;;;;;;;10.48;100.00;100771.38;686763;28;4533;-64
2023/05/16 00:31:30;;;;;;;9.57;5.88;;;;;;;10.47;100.00;100767.00;687521;28;1064;-64
2023/05/16 00:31:50;;;;;;;9.30;5.73;;;;;;;10.41;100.00;100768.78;685852;28;1632;-64
2023/05/16 00:32:11;;;;;;;8.55;5.22;;;;;;;10.42;100.00;100778.34;687450;28;1295;-65
2023/05/16 00:32:32;;;;;;;8.70;5.32;;;;;;;10.46;100.00;100770.50;688562;28;972;-65
2023/05/16 00:32:54;;;;;;;7.88;5.38;;;;;;;10.48;100.00;100780.94;686194;28;1267;-64
2023/05/16 00:33:15;;;;;;;8.10;5.45;;;;;;;10.48;100.00;100774.00;686323;28;1009;-64
2023/05/16 00:33:35;;;;;;;9.68;5.32;;;;;;;10.45;100.00;100779.19;681733;28;901;-64
2023/05/16 00:33:56;;;;;;;9.03;5.23;;;;;;;10.54;100.00;100773.09;680597;28;4309;-64
2023/05/16 00:34:20;;;;;;;9.50;5.57;;;;;;;10.53;100.00;100777.44;684427;28;919;-64
2023/05/16 00:34:40;;;;;;;9.27;5.10;;;;;;;10.51;100.00;100771.38;684732;28;1144;-65
2023/05/16 00:35:01;;;;;;;7.68;5.20;;;;;;;10.50;100.00;100768.75;686612;28;1572;-65
2023/05/16 00:35:21;;;;;;;7.93;5.28;;;;;;;10.49;100.00;100765.25;690144;28;1188;-65
2023/05/16 00:35:43;;;;;;;7.95;4.82;;;;;;;10.48;100.00;100773.09;689295;28;841;-65
2023/05/16 00:36:05;;;;;;;8.27;5.00;;;;;;;10.43;100.00;100767.03;686299;28;1257;-65
2023/05/16 00:36:25;;;;;;;8.65;5.03;;;;;;;10.50;100.00;100774.00;686466;28;791;-65
2023/05/16 00:36:45;;;;;;;9.40;5.33;;;;;;;10.43;100.00;100770.50;687604;28;1321;-65
2023/05/16 00:37:06;;;;;;;8.50;5.30;;;;;;;10.35;100.00;100770.50;685031;28;4428;-66
2023/05/16 00:37:26;;;;;;;9.30;5.18;;;;;;;10.34;100.00;100786.16;684726;28;746;-65
2023/05/16 00:37:48;;;;;;;8.77;5.05;;;;;;;10.29;100.00;100775.75;685226;28;1580;-64
2023/05/16 00:38:12;;;;;;;8.07;5.22;;;;;;;10.22;100.00;100772.25;682138;28;1006;-65
2023/05/16 00:38:32;;;;;;;7.70;4.90;;;;;;;10.28;100.00;100775.75;683280;28;1221;-65
2023/05/16 00:38:53;;;;;;;7.90;4.70;;;;;;;10.27;100.00;100771.38;683268;28;5188;-65
2023/05/16 00:39:14;;;;;;;7.70;4.70;;;;;;;10.31;100.00;100773.97;685928;28;1184;-65
2023/05/16 00:39:37;;;;;;;8.43;4.70;;;;;;;10.23;100.00;100775.72;687942;28;1217;-65
2023/05/16 00:39:57;;;;;;;7.68;4.57;;;;;;;10.27;100.00;100774.00;685933;28;4383;-65
2023/05/16 00:40:20;;;;;;;8.57;4.65;;;;;;;10.28;100.00;100774.00;688061;28;1342;-65
2023/05/16 00:40:40;;;;;;;7.82;4.60;;;;;;;10.30;100.00;100773.97;687120;28;984;-66
2023/05/16 00:41:03;;;;;;;7.47;4.40;;;;;;;10.32;100.00;100772.25;685986;28;1520;-65
2023/05/16 00:41:25;;;;;;;7.80;4.65;;;;;;;10.26;100.00;100769.63;687087;28;754;-66
2023/05/16 00:41:45;;;;;;;7.97;4.70;;;;;;;10.21;100.00;100780.97;687584;28;1352;-66
2023/05/16 00:42:06;;;;;;;8.57;4.85;;;;;;;10.22;100.00;100777.47;685483;28;1902;-66
2023/05/16 00:42:26;;;;;;;7.78;4.50;;;;;;;10.12;100.00;100775.78;684845;28;890;-66
2023/05/16 00:42:46;;;;;;;7.00;4.37;;;;;;;10.12;100.00;100775.78;685103;28;1306;-66
2023/05/16 00:43:08;;;;;;;7.60;4.60;;;;;;;10.16;100.00;100772.28;683841;28;4326;-63
2023/05/16 00:43:29;;;;;;;7.68;4.55;;;;;;;10.08;100.00;100774.03;685824;28;1048;-65
2023/05/16 00:43:52;;;;;;;7.78;4.60;;;;;;;10.05;100.00;100768.78;683678;28;968;-66
2023/05/16 00:44:13;;;;;;;8.30;4.70;;;;;;;9.99;100.00;100774.88;684895;28;945;-65
2023/05/16 00:44:33;;;;;;;7.23;4.37;;;;;;;10.08;100.00;100778.38;684444;28;873;-65
2023/05/16 00:44:53;;;;;;;8.00;4.13;;;;;;;10.12;100.00;100770.53;683683;28;952;-65
2023/05/16 00:45:14;;;;;;;8.63;4.88;;;;;;;10.05;100.00;100776.63;684359;28;1218;-64
2023/05/16 00:45:34;;;;;;;8.80;4.70;;;;;;;9.95;100.00;100773.16;685499;28;801;-65
2023/05/16 00:45:56;;;;;;;7.10;4.20;;;;;;;9.98;100.00;100774.88;685680;28;4351;-68
2023/05/16 00:46:17;;;;;;;7.05;4.20;;;;;;;9.96;100.00;100780.13;685115;28;830;-65
2023/05/16 00:46:39;;;;;;;7.37;4.03;;;;;;;9.98;100.00;100780.13;687787;28;1000;-66
2023/05/16 00:47:01;;;;;;;7.10;4.00;;;;;;;9.88;100.00;100779.25;686255;28;1534;-65
2023/05/16 00:47:22;;;;;;;6.95;3.90;;;;;;;9.89;100.00;100776.63;687620;28;814;-67
2023/05/16 00:47:42;;;;;;;7.87;4.10;;;;;;;9.92;100.00;100778.38;687486;28;1325;-66
2023/05/16 00:48:03;;;;;;;9.02;4.40;;;;;;;9.91;100.00;100776.63;683428;28;1474;-65
2023/05/16 00:48:24;;;;;;;7.07;3.80;;;;;;;9.96;100.00;100779.25;684764;28;1221;-66
2023/05/16 00:48:45;;;;;;;7.05;3.83;;;;;;;10.00;100.00;100781.84;683755;28;1044;-66
2023/05/16 00:49:07;;;;;;;7.53;4.30;;;;;;;9.95;100.00;100774.91;684663;28;4320;-65
2023/05/16 00:49:28;;;;;;;7.28;4.30;;;;;;;9.93;100.00;100780.13;687257;28;847;-66
2023/05/16 00:49:48;;;;;;;7.05;4.07;;;;;;;10.00;100.00;100778.38;686364;28;2263;-65
2023/05/16 00:50:10;;;;;;;7.43;4.03;;;;;;;9.96;100.00;100781.88;684434;28;1309;-66
2023/05/16 00:50:33;;;;;;;7.18;3.95;;;;;;;9.92;100.00;100777.53;682132;29;1338;-66
2023/05/16 00:50:53;;;;;;;7.00;4.00;;;;;;;9.88;100.00;100776.63;681617;28;1718;-67
2023/05/16 00:51:16;;;;;;;7.20;3.95;;;;;;;9.87;100.00;100777.50;685169;28;932;-67
2023/05/16 00:51:38;;;;;;;6.88;4.13;;;;;;;9.84;100.00;100783.63;681608;28;1405;-66
2023/05/16 00:51:58;;;;;;;6.97;3.92;;;;;;;9.77;100.00;100775.78;679062;28;4326;-66
2023/05/16 00:52:19;;;;;;;8.00;4.03;;;;;;;9.79;100.00;100782.75;682549;28;819;-65
2023/05/16 00:52:40;;;;;;;8.00;4.00;;;;;;;9.83;100.00;100774.03;684307;28;1388;-66
2023/05/16 00:53:00;;;;;;;8.40;4.13;;;;;;;9.82;100.00;100779.25;683291;28;1596;-66
2023/05/16 00:53:22;;;;;;;8.35;4.05;;;;;;;9.80;100.00;100779.28;683837;28;1380;-65
2023/05/16 00:53:43;;;;;;;8.60;4.30;;;;;;;9.82;100.00;100785.34;683002;28;997;-66
2023/05/16 00:54:04;;;;;;;9.00;4.38;;;;;;;9.87;100.00;100773.16;683354;28;1569;-67
2023/05/16 00:54:27;;;;;;;7.15;4.00;;;;;;;9.85;100.00;100777.50;686079;28;1269;-66
2023/05/16 00:54:49;;;;;;;7.18;4.20;;;;;;;9.85;100.00;100777.50;687497;28;1255;-67
2023/05/16 00:55:10;;;;;;;7.45;4.22;;;;;;;9.84;100.00;100783.63;683598;28;4532;-66
2023/05/16 00:55:31;;;;;;;6.60;3.70;;;;;;;9.87;100.00;100778.38;682138;28;870;-66
2023/05/16 00:55:51;;;;;;;8.23;4.10;;;;;;;9.80;100.00;100779.28;680961;28;1510;-66
2023/05/16 00:56:12;;;;;;;6.60;3.60;;;;;;;9.75;100.00;100781.00;684125;28;889;-66
2023/05/16 00:56:33;;;;;;;6.05;3.78;;;;;;;9.81;100.00;100783.59;684468;28;1240;-66
2023/05/16 00:56:56;;;;;;;7.82;3.80;;;;;;;9.79;100.00;100780.13;683388;28;1530;-66
2023/05/16 00:57:17;;;;;;;7.63;4.00;;;;;;;9.76;100.00;100785.34;684928;28;900;-65
2023/05/16 00:57:38;;;;;;;6.20;4.05;;;;;;;9.77;100.00;100778.38;687316;28;929;-67
2023/05/16 00:57:59;;;;;;;6.22;3.60;;;;;;;9.76;100.00;100777.53;686009;28;4528;-65
2023/05/16 00:58:21;;;;;;;6.63;3.77;;;;;;;9.79;100.00;100782.75;687080;28;810;-65
2023/05/16 00:58:41;;;;;;;7.53;3.88;;;;;;;9.73;100.00;100779.25;685861;28;1187;-66
2023/05/16 00:59:02;;;;;;;6.63;3.50;;;;;;;9.72;100.00;100775.78;684677;28;1509;-64
2023/05/16 00:59:23;;;;;;;7.00;3.60;;;;;;;9.69;100.00;100775.75;686925;28;793;-61
2023/05/16 00:59:45;;;;;;;6.65;3.55;;;;;;;9.63;100.00;100786.22;688308;28;1469;-63
2023/05/16 01:00:10;;;;;;;7.38;3.60;;;;;;;9.59;100.00;100774.03;686561;28;1520;-67
2023/05/16 01:00:30;;;;;;;7.10;3.70;;;;;;;9.66;100.00;100784.47;689495;28;2038;-67
2023/05/16 01:00:51;;;;;;;6.78;3.83;;;;;;;9.64;100.00;100782.72;686241;28;1679;-67
2023/05/16 01:01:13;;;;;;;6.63;3.80;;;;;;;9.67;100.00;100780.97;685611;28;4503;-67
2023/05/16 01:01:35;;;;;;;7.13;3.63;;;;;;;9.68;100.00;100779.25;684475;28;1000;-67
2023/05/16 01:01:55;;;;;;;6.22;3.42;;;;;;;9.70;100.00;100778.34;683180;28;1172;-65
2023/05/16 01:02:16;;;;;;;7.20;3.60;;;;;;;9.71;100.00;100779.25;687344;28;1974;-63
2023/05/16 01:02:36;;;;;;;6.50;3.80;;;;;;;9.64;100.00;100774.91;683847;28;1251;-63
2023/05/16 01:02:59;;;;;;;6.05;3.47;;;;;;;9.65;100.00;100784.44;686516;28;1517;-64
2023/05/16 01:03:20;;;;;;;6.72;3.60;;;;;;;9.60;100.00;100781.00;687767;28;845;-62
2023/05/16 01:03:41;;;;;;;6.13;3.45;;;;;;;9.59;100.00;100774.88;687166;28;1139;-63
2023/05/16 01:04:02;;;;;;;6.30;3.40;;;;;;;9.65;100.00;100774.91;685272;28;4482;-64
2023/05/16 01:04:23;;;;;;;6.97;3.70;;;;;;;9.70;100.00;100774.91;687592;28;1422;-64
2023/05/16 01:04:45;;;;;;;8.00;3.80;;;;;;;9.65;100.00;100771.41;686877;28;1128;-64
2023/05/16 01:05:08;;;;;;;8.55;3.75;;;;;;;9.60;100.00;100781.00;685362;28;1479;-64
2023/05/16 01:05:29;;;;;;;6.38;3.88;;;;;;;9.52;100.00;100779.22;684099;28;2145;-64
2023/05/16 01:05:50;;;;;;;8.80;3.50;;;;;;;9.46;100.00;100783.59;682153;28;1549;-64
2023/05/16 01:06:11;;;;;;;8.27;3.60;;;;;;;9.50;100.00;100780.97;682634;28;1353;-65
2023/05/16 01:06:33;;;;;;;6.40;3.75;;;;;;;9.49;100.00;100776.59;687845;28;1220;-64
2023/05/16 01:06:55;;;;;;;6.55;3.50;;;;;;;9.52;100.00;100779.22;686838;28;4756;-63
2023/05/16 01:07:16;;;;;;;6.60;3.50;;;;;;;9.53;100.00;100780.09;686185;28;1167;-64
2023/05/16 01:07:37;;;;;;;6.40;3.50;;;;;;;9.47;100.00;100785.28;687279;28;1204;-63
2023/05/16 01:07:57;;;;;;;6.88;3.70;;;;;;;9.47;100.00;100787.91;685671;28;1462;-63
2023/05/16 01:08:18;;;;;;;7.73;3.63;;;;;;;9.47;100.00;100780.97;684017;28;1426;-63
2023/05/16 01:08:38;;;;;;;7.77;3.40;;;;;;;9.47;100.00;100785.28;684968;28;952;-64
2023/05/16 01:08:59;;;;;;;6.57;3.22;;;;;;;9.49;100.00;100783.56;683481;28;2317;-64
2023/05/16 01:09:20;;;;;;;7.40;4.00;;;;;;;9.49;100.00;100781.81;684795;28;1371;-64
2023/05/16 01:09:41;;;;;;;7.00;3.80;;;;;;;9.44;100.00;100791.41;684807;28;1003;-62
2023/05/16 01:10:03;;;;;;;7.90;3.70;;;;;;;9.48;100.00;100793.13;683486;28;4619;-62
2023/05/16 01:10:26;;;;;;;6.50;3.20;;;;;;;9.48;100.00;100782.69;683805;28;981;-63
2023/05/16 01:11:07;;;;;;;5.18;3.15;;;;;;;9.46;100.00;100789.66;684561;28;1205;-62
2023/05/16 01:11:35;;;;;;;5.75;3.33;;;;;;;9.46;100.00;100784.44;686527;28;834;-63
2023/05/16 01:12:06;;;;;;;6.18;3.60;;;;;;;9.41;100.00;100786.16;685839;28;1643;-64
2023/05/16 01:13:00;;;;;;;6.13;3.28;;;;;;;9.36;100.00;100788.78;688376;28;1131;-63
2023/05/16 01:13:34;;;;;;;7.65;3.70;;;;;;;9.47;100.00;100791.41;683936;28;4989;-63
2023/05/16 01:14:21;;;;;;;5.97;3.40;;;;;;;9.49;100.00;100796.63;683998;28;1565;-63
2023/05/16 01:14:59;;;;;;;6.22;3.38;;;;;;;9.50;100.00;100793.16;684270;28;1540;-63
2023/05/16 01:15:29;;;;;;;5.63;3.17;;;;;;;9.48;100.00;100790.50;686448;28;1137;-62
2023/05/16 01:16:03;;;;;;;5.60;3.30;;;;;;;9.46;100.00;100794.03;683632;28;1403;-63
2023/05/16 01:16:55;;;;;;;7.70;3.40;;;;;;;9.36;100.00;100790.53;678534;29;6618;-62
2023/05/16 01:17:25;;;;;;;7.10;3.75;;;;;;;9.42;100.00;100787.06;676506;29;2231;-62
2023/05/16 01:18:14;;;;;;;6.93;3.30;;;;;;;9.44;100.00;100795.75;681516;29;963;-61
2023/05/16 01:18:56;;;;;;;5.93;3.40;;;;;;;9.43;100.00;100788.78;687160;28;845;-61
2023/05/16 01:19:20;;;;;;;5.70;3.17;;;;;;;9.43;100.00;100788.78;689321;28;6187;-61
2023/05/16 01:19:54;;;;;;;6.15;3.40;;;;;;;9.42;100.00;100787.91;688985;28;1414;-60
2023/05/16 01:20:54;;;;;;;7.30;3.40;;;;;;;9.41;100.00;100804.44;688700;28;1481;-62
2023/05/16 01:21:47;;;;;;;5.47;3.60;;;;;;;9.41;100.00;100793.13;688048;28;924;-61
2023/05/16 01:22:15;;;;;;;6.25;3.50;;;;;;;9.30;100.00;100788.75;685418;28;4398;-61
2023/05/16 01:22:44;;;;;;;6.78;3.53;;;;;;;9.27;100.00;100787.88;686996;28;1464;-61
2023/05/16 01:23:39;;;;;;;6.03;3.50;;;;;;;9.25;100.00;100792.22;688056;28;1592;-61
2023/05/16 01:24:21;;;;;;;5.93;3.60;;;;;;;9.25;100.00;100789.59;688862;28;1792;-61
2023/05/16 01:25:02;;;;;;;6.45;3.38;;;;;;;9.27;100.00;100788.75;689181;28;1205;-61
2023/05/16 01:25:49;;;;;;;6.30;3.60;;;;;;;9.22;100.00;100797.41;688926;28;4815;-61
2023/05/16 01:26:23;;;;;;;6.00;3.60;;;;;;;9.18;100.00;100800.03;687082;28;1552;-62
2023/05/16 01:26:45;;;;;;;7.72;3.72;;;;;;;9.25;100.00;100800.03;689808;28;889;-62
2023/05/16 01:27:07;;;;;;;6.80;4.00;;;;;;;9.25;100.00;100800.91;688070;28;1442;-62
2023/05/16 01:27:28;;;;;;;7.18;4.18;;;;;;;9.28;100.00;100800.06;690235;28;873;-62
2023/05/16 01:27:51;;;;;;;6.18;3.88;;;;;;;9.25;100.00;100800.91;689237;28;1063;-62
2023/05/16 01:28:16;;;;;;;6.05;3.78;;;;;;;9.22;100.00;100800.03;689701;28;4302;-62
2023/05/16 01:28:38;;;;;;;8.70;4.20;;;;;;;9.22;100.00;100797.41;689355;28;867;-61
2023/05/16 01:28:59;;;;;;;9.43;4.00;;;;;;;9.25;100.00;100795.69;688209;28;1562;-62
2023/05/16 01:29:20;;;;;;;6.60;3.70;;;;;;;9.29;100.00;100799.19;686953;28;1299;-61
2023/05/16 01:29:40;;;;;;;7.32;4.00;;;;;;;9.24;100.00;100798.31;687026;28;1087;-61
2023/05/16 01:30:13;;;;;;;6.80;4.10;;;;;;;9.16;100.00;100791.31;685692;28;1098;-61
2023/05/16 01:30:36;;;;;;;7.50;4.03;;;;;;;9.20;100.00;100800.03;684761;28;900;-62
2023/05/16 01:30:56;;;;;;;7.07;4.25;;;;;;;9.10;100.00;100798.28;684386;28;4978;-63
2023/05/16 01:31:18;;;;;;;6.97;4.30;;;;;;;9.18;100.00;100799.16;687164;28;1203;-62
2023/05/16 01:31:38;;;;;;;7.00;4.47;;;;;;;9.20;100.00;100800.03;686571;28;1398;-61
2023/05/16 01:31:58;;;;;;;7.17;4.23;;;;;;;9.20;100.00;100794.81;687789;28;1493;-62
2023/05/16 01:32:21;;;;;;;7.13;4.53;;;;;;;9.25;100.00;100805.25;690214;28;801;-63
2023/05/16 01:32:42;;;;;;;6.95;3.92;;;;;;;9.20;100.00;100800.03;690114;28;1468;-62
2023/05/16 01:33:02;;;;;;;6.90;4.20;;;;;;;9.16;100.00;100804.34;688319;28;1473;-62
2023/05/16 01:33:22;;;;;;;6.67;4.00;;;;;;;9.14;100.00;100798.28;687031;28;1224;-62
2023/05/16 01:33:43;;;;;;;8.60;3.70;;;;;;;9.16;100.00;100804.34;687409;28;861;-61
2023/05/16 01:34:04;;;;;;;9.50;3.90;;;;;;;9.04;100.00;100801.69;682907;28;4306;-61
2023/05/16 01:34:25;;;;;;;7.53;4.17;;;;;;;9.11;100.00;100802.59;686297;28;1284;-62
2023/05/16 01:34:48;;;;;;;6.88;3.95;;;;;;;9.12;100.00;100800.00;682142;28;1239;-61
2023/05/16 01:35:12;;;;;;;6.30;4.03;;;;;;;9.09;100.00;100805.19;684268;28;1483;-64
2023/05/16 01:35:38;;;;;;;6.32;3.92;;;;;;;9.03;100.00;100800.84;686539;28;2038;-62
2023/05/16 01:36:21;;;;;;;6.57;4.00;;;;;;;9.01;100.00;100804.31;689181;28;1449;-62
2023/05/16 01:37:23;;;;;;;6.15;3.90;;;;;;;9.08;100.00;100803.44;689925;28;849;-61
2023/05/16 01:38:00;;;;;;;5.72;4.10;;;;;;;9.09;100.00;100809.56;679676;29;4910;-61
2023/05/16 01:38:51;;;;;;;6.72;4.20;;;;;;;9.06;100.00;100805.19;681044;29;818;-61
2023/05/16 01:39:40;;;;;;;7.25;4.20;;;;;;;9.09;100.00;100809.56;687094;28;1304;-61
2023/05/16 01:40:11;;;;;;;7.75;4.00;;;;;;;9.08;100.00;100813.88;686621;28;1595;-61
2023/05/16 01:40:55;;;;;;;7.35;4.30;;;;;;;9.06;100.00;100810.41;686847;28;916;-61
2023/05/16 01:41:28;;;;;;;6.55;3.50;;;;;;;9.01;100.00;100806.91;690090;28;1192;-61
2023/05/16 01:42:13;;;;;;;7.15;4.00;;;;;;;8.98;100.00;100802.56;688543;28;912;-61
2023/05/16 01:42:38;;;;;;;7.70;4.00;;;;;;;9.04;100.00;100812.13;686498;28;1259;-61
2023/05/16 01:43:03;;;;;;;7.30;3.97;;;;;;;9.03;100.00;100810.41;685247;28;4598;-61
2023/05/16 01:43:45;;;;;;;9.30;3.72;;;;;;;8.99;100.00;100809.50;687318;28;1394;-61
2023/05/16 01:44:15;;;;;;;7.40;4.15;;;;;;;8.93;100.00;100814.72;685604;28;1236;-61
2023/05/16 01:44:50;;;;;;;7.45;4.20;;;;;;;8.88;100.00;100811.22;689501;28;972;-60
2023/05/16 01:45:21;;;;;;;8.23;4.18;;;;;;;8.85;100.00;100809.47;688133;28;1932;-61
2023/05/16 01:45:50;;;;;;;7.07;4.30;;;;;;;8.88;100.00;100816.44;688855;28;1258;-60
2023/05/16 01:46:14;;;;;;;7.07;4.00;;;;;;;8.90;100.00;100819.03;688047;28;4567;-60
2023/05/16 01:46:40;;;;;;;6.93;3.75;;;;;;;8.93;100.00;100811.22;691271;28;1035;-61
2023/05/16 01:47:06;;;;;;;7.20;4.10;;;;;;;9.00;100.00;100818.22;687734;28;1684;-61
2023/05/16 01:47:29;;;;;;;6.40;3.63;;;;;;;8.95;100.00;100807.75;684608;28;1260;-61
2023/05/16 01:47:59;;;;;;;6.10;3.80;;;;;;;8.89;100.00;100817.28;679319;29;938;-60
2023/05/16 01:48:26;;;;;;;6.43;3.53;;;;;;;8.93;100.00;100819.94;681639;29;1005;-60
2023/05/16 01:49:01;;;;;;;7.18;3.83;;;;;;;8.89;100.00;100814.69;681826;29;890;-60
2023/05/16 01:49:43;;;;;;;6.18;3.83;;;;;;;8.91;100.00;100820.78;685500;28;5152;-61
2023/05/16 01:50:09;;;;;;;6.15;3.42;;;;;;;8.95;100.00;100822.53;689217;28;1546;-61
2023/05/16 01:50:33;;;;;;;6.13;3.55;;;;;;;8.98;100.00;100817.34;690008;28;947;-61
2023/05/16 01:50:56;;;;;;;8.57;3.67;;;;;;;8.97;100.00;100818.19;685702;28;1477;-60
2023/05/16 01:51:20;;;;;;;6.75;3.75;;;;;;;8.92;100.00;100822.53;687662;28;920;-60
2023/05/16 01:51:44;;;;;;;8.65;3.80;;;;;;;8.91;100.00;100826.00;689769;28;1337;-63
2023/05/16 01:52:14;;;;;;;6.78;3.90;;;;;;;8.94;100.00;100823.41;686417;28;4435;-60
2023/05/16 01:52:39;;;;;;;6.75;4.00;;;;;;;8.88;100.00;100826.84;689506;28;975;-61
2023/05/16 01:53:06;;;;;;;6.28;3.90;;;;;;;8.92;100.00;100822.53;685895;28;1466;-60
2023/05/16 01:53:32;;;;;;;9.98;3.85;;;;;;;8.88;100.00;100829.47;686996;28;1036;-59
2023/05/16 01:54:00;;;;;;;8.32;3.90;;;;;;;8.92;100.00;100826.00;686581;28;1503;-60
2023/05/16 01:54:25;;;;;;;6.25;3.88;;;;;;;8.88;100.00;100824.25;687634;28;983;-60
2023/05/16 01:54:47;;;;;;;7.70;4.18;;;;;;;8.80;100.00;100826.81;685109;28;1346;-60